KMOP

Mount Pleasant Municipal Airport

Mount Pleasant, Michigan, USA
METAR KMOP 191935Z AUTO 22016G21KT 10SM BKN080 OVC090 11/04 A2980 RMK AO2 T01110042
Observed Flight Rules
Oct-19 @ 19:35 UTC (34 minutes ago) Visual Flight Rules
Wind Visibility Clouds
220° at 16 knots
 Gusting to 21 knots
10 miles
  • Broken at 8,000' AGL
  • Overcast at 9,000' AGL
Temperatures Readings
Current 11°C / 52°F
Dewpoint 4°C / 39°F
Humidity 62%
Altimeter 29.8" Hg
Pressure 1009 hPa
Elevation 230
METAR KMOP 191935Z AUTO 22016G21KT 10SM BKN080 OVC090 11/04 A2980 RMK AO2 T01110042
Observed Flight Rules
Oct-19 @ 19:35 UTC
(34 minutes ago)
VFR
Wind Visibility
220° at 16 knots
 Gusting to 21 knots
10 miles
Clouds
  • Broken at 8,000' AGL
  • Overcast at 9,000' AGL
Temperature Dewpoint
11°C / 52°F 4°C / 39°F
Humidity Altimeter Pressure
62% 29.8" Hg 1009 hPa